sensor_id;sensor_type;location;lat;lon;timestamp;temperature;humidity
9223;DHT22;7557;51.698;3.942;2023-03-24T00:01:51;13.20;99.90
9223;DHT22;7557;51.698;3.942;2023-03-24T00:04:19;13.20;99.90
9223;DHT22;7557;51.698;3.942;2023-03-24T00:06:50;13.30;99.90
9223;DHT22;7557;51.698;3.942;2023-03-24T00:09:19;13.30;99.90
9223;DHT22;7557;51.698;3.942;2023-03-24T00:11:46;13.30;99.90
9223;DHT22;7557;51.698;3.942;2023-03-24T00:14:14;13.30;99.90
9223;DHT22;7557;51.698;3.942;2023-03-24T00:16:42;13.30;99.90
9223;DHT22;7557;51.698;3.942;2023-03-24T00:19:12;13.40;99.90
9223;DHT22;7557;51.698;3.942;2023-03-24T00:21:39;13.40;99.90
9223;DHT22;7557;51.698;3.942;2023-03-24T00:24:09;13.40;99.90
9223;DHT22;7557;51.698;3.942;2023-03-24T00:26:39;13.40;99.90
9223;DHT22;7557;51.698;3.942;2023-03-24T00:29:08;13.40;99.90
9223;DHT22;7557;51.698;3.942;2023-03-24T00:31:36;13.50;99.90
9223;DHT22;7557;51.698;3.942;2023-03-24T00:34:06;13.50;99.90
9223;DHT22;7557;51.698;3.942;2023-03-24T00:36:36;13.50;99.90
9223;DHT22;7557;51.698;3.942;2023-03-24T00:39:04;13.50;99.90
9223;DHT22;7557;51.698;3.942;2023-03-24T00:41:32;13.50;99.90
9223;DHT22;7557;51.698;3.942;2023-03-24T00:44:00;13.60;99.90
9223;DHT22;7557;51.698;3.942;2023-03-24T00:46:34;13.60;99.90
9223;DHT22;7557;51.698;3.942;2023-03-24T00:49:05;13.60;99.90
9223;DHT22;7557;51.698;3.942;2023-03-24T00:51:40;13.70;99.90
9223;DHT22;7557;51.698;3.942;2023-03-24T00:54:10;13.60;99.90
9223;DHT22;7557;51.698;3.942;2023-03-24T00:56:39;13.70;99.90
9223;DHT22;7557;51.698;3.942;2023-03-24T00:59:08;13.70;99.90
9223;DHT22;7557;51.698;3.942;2023-03-24T01:01:38;13.70;99.90
9223;DHT22;7557;51.698;3.942;2023-03-24T01:04:08;13.70;99.90
9223;DHT22;7557;51.698;3.942;2023-03-24T01:06:38;13.70;99.90
9223;DHT22;7557;51.698;3.942;2023-03-24T01:09:06;13.60;99.90
9223;DHT22;7557;51.698;3.942;2023-03-24T01:11:36;13.60;99.90
9223;DHT22;7557;51.698;3.942;2023-03-24T01:14:05;13.50;99.90
9223;DHT22;7557;51.698;3.942;2023-03-24T01:16:32;13.40;99.90
9223;DHT22;7557;51.698;3.942;2023-03-24T01:19:00;13.30;99.90
9223;DHT22;7557;51.698;3.942;2023-03-24T01:21:28;13.20;99.90
9223;DHT22;7557;51.698;3.942;2023-03-24T01:23:58;13.10;99.90
9223;DHT22;7557;51.698;3.942;2023-03-24T01:26:27;13.00;99.90
9223;DHT22;7557;51.698;3.942;2023-03-24T01:28:55;12.90;99.90
9223;DHT22;7557;51.698;3.942;2023-03-24T01:31:22;12.80;99.90
9223;DHT22;7557;51.698;3.942;2023-03-24T01:33:50;12.70;99.90
9223;DHT22;7557;51.698;3.942;2023-03-24T01:36:17;12.60;99.90
9223;DHT22;7557;51.698;3.942;2023-03-24T01:38:44;12.50;99.90
9223;DHT22;7557;51.698;3.942;2023-03-24T01:41:14;12.50;99.90
9223;DHT22;7557;51.698;3.942;2023-03-24T01:43:42;12.40;99.90
9223;DHT22;7557;51.698;3.942;2023-03-24T01:46:15;12.40;99.90
9223;DHT22;7557;51.698;3.942;2023-03-24T01:48:48;12.30;99.90
9223;DHT22;7557;51.698;3.942;2023-03-24T01:51:20;12.30;99.90
9223;DHT22;7557;51.698;3.942;2023-03-24T01:53:52;12.20;99.90
9223;DHT22;7557;51.698;3.942;2023-03-24T01:56:22;12.10;99.90
9223;DHT22;7557;51.698;3.942;2023-03-24T01:58:54;12.00;99.90
9223;DHT22;7557;51.698;3.942;2023-03-24T02:01:22;12.00;99.90
9223;DHT22;7557;51.698;3.942;2023-03-24T02:03:55;12.00;99.90
9223;DHT22;7557;51.698;3.942;2023-03-24T02:06:23;11.90;99.90
9223;DHT22;7557;51.698;3.942;2023-03-24T02:08:53;11.90;99.90
9223;DHT22;7557;51.698;3.942;2023-03-24T02:11:26;11.80;99.90
9223;DHT22;7557;51.698;3.942;2023-03-24T02:13:54;11.80;99.90
9223;DHT22;7557;51.698;3.942;2023-03-24T02:16:36;11.70;99.90
9223;DHT22;7557;51.698;3.942;2023-03-24T02:19:47;11.70;99.90
9223;DHT22;7557;51.698;3.942;2023-03-24T02:22:44;11.60;99.90
9223;DHT22;7557;51.698;3.942;2023-03-24T02:25:27;11.60;99.90
9223;DHT22;7557;51.698;3.942;2023-03-24T02:28:13;11.50;99.90
9223;DHT22;7557;51.698;3.942;2023-03-24T02:34:35;11.40;99.90
9223;DHT22;7557;51.698;3.942;2023-03-24T02:37:32;11.40;99.90
9223;DHT22;7557;51.698;3.942;2023-03-24T02:40:17;11.30;99.90
9223;DHT22;7557;51.698;3.942;2023-03-24T02:42:56;11.20;99.90
9223;DHT22;7557;51.698;3.942;2023-03-24T02:45:33;11.20;99.90
9223;DHT22;7557;51.698;3.942;2023-03-24T02:48:16;11.20;99.90
9223;DHT22;7557;51.698;3.942;2023-03-24T02:50:50;11.10;99.90
9223;DHT22;7557;51.698;3.942;2023-03-24T02:53:22;11.10;99.90
9223;DHT22;7557;51.698;3.942;2023-03-24T02:55:54;11.10;99.90
9223;DHT22;7557;51.698;3.942;2023-03-24T02:58:30;11.10;99.90
9223;DHT22;7557;51.698;3.942;2023-03-24T03:01:05;11.10;99.90
9223;DHT22;7557;51.698;3.942;2023-03-24T03:03:37;11.10;99.90
9223;DHT22;7557;51.698;3.942;2023-03-24T03:06:11;11.00;99.90
9223;DHT22;7557;51.698;3.942;2023-03-24T03:08:39;11.00;99.90
9223;DHT22;7557;51.698;3.942;2023-03-24T03:11:13;11.00;99.90
9223;DHT22;7557;51.698;3.942;2023-03-24T03:13:46;11.00;99.90
9223;DHT22;7557;51.698;3.942;2023-03-24T03:16:18;10.90;99.90
9223;DHT22;7557;51.698;3.942;2023-03-24T03:18:49;10.90;99.90
9223;DHT22;7557;51.698;3.942;2023-03-24T03:21:19;10.90;99.90
9223;DHT22;7557;51.698;3.942;2023-03-24T03:23:51;10.90;99.90
9223;DHT22;7557;51.698;3.942;2023-03-24T03:26:21;10.90;99.90
9223;DHT22;7557;51.698;3.942;2023-03-24T03:28:53;10.90;99.90
9223;DHT22;7557;51.698;3.942;2023-03-24T03:31:27;10.80;99.90
9223;DHT22;7557;51.698;3.942;2023-03-24T03:34:03;10.80;99.90
9223;DHT22;7557;51.698;3.942;2023-03-24T03:36:38;10.80;99.90
9223;DHT22;7557;51.698;3.942;2023-03-24T03:39:10;10.80;99.90
9223;DHT22;7557;51.698;3.942;2023-03-24T03:41:42;10.70;99.90
9223;DHT22;7557;51.698;3.942;2023-03-24T03:44:10;10.80;99.90
9223;DHT22;7557;51.698;3.942;2023-03-24T03:46:38;10.70;99.90
9223;DHT22;7557;51.698;3.942;2023-03-24T03:49:07;10.70;99.90
9223;DHT22;7557;51.698;3.942;2023-03-24T03:51:35;10.70;99.90
9223;DHT22;7557;51.698;3.942;2023-03-24T03:54:05;10.70;99.90
9223;DHT22;7557;51.698;3.942;2023-03-24T03:56:35;10.70;99.90
9223;DHT22;7557;51.698;3.942;2023-03-24T03:59:06;10.70;99.90
9223;DHT22;7557;51.698;3.942;2023-03-24T04:01:35;10.70;99.90
9223;DHT22;7557;51.698;3.942;2023-03-24T04:04:24;10.70;99.90
9223;DHT22;7557;51.698;3.942;2023-03-24T04:07:00;10.70;99.90
9223;DHT22;7557;51.698;3.942;2023-03-24T04:09:37;10.70;99.90
9223;DHT22;7557;51.698;3.942;2023-03-24T04:12:17;10.70;99.90
9223;DHT22;7557;51.698;3.942;2023-03-24T04:15:05;10.70;99.90
9223;DHT22;7557;51.698;3.942;2023-03-24T04:20:29;10.60;99.90
9223;DHT22;7557;51.698;3.942;2023-03-24T04:23:04;10.60;99.90
9223;DHT22;7557;51.698;3.942;2023-03-24T04:25:39;10.70;99.90
9223;DHT22;7557;51.698;3.942;2023-03-24T04:28:18;10.60;99.90
9223;DHT22;7557;51.698;3.942;2023-03-24T04:30:56;10.60;99.90
9223;DHT22;7557;51.698;3.942;2023-03-24T04:33:29;10.60;99.90
9223;DHT22;7557;51.698;3.942;2023-03-24T04:36:08;10.60;99.90
9223;DHT22;7557;51.698;3.942;2023-03-24T04:38:45;10.60;99.90
9223;DHT22;7557;51.698;3.942;2023-03-24T04:41:16;10.60;99.90
9223;DHT22;7557;51.698;3.942;2023-03-24T04:43:45;10.60;99.90
9223;DHT22;7557;51.698;3.942;2023-03-24T04:46:15;10.60;99.90
9223;DHT22;7557;51.698;3.942;2023-03-24T04:48:43;10.70;99.90
9223;DHT22;7557;51.698;3.942;2023-03-24T04:51:14;10.60;99.90
9223;DHT22;7557;51.698;3.942;2023-03-24T04:53:42;10.70;99.90
9223;DHT22;7557;51.698;3.942;2023-03-24T04:56:25;10.60;99.90
9223;DHT22;7557;51.698;3.942;2023-03-24T04:58:53;10.70;99.90
9223;DHT22;7557;51.698;3.942;2023-03-24T05:01:22;10.60;99.90
9223;DHT22;7557;51.698;3.942;2023-03-24T05:03:54;10.60;99.90
9223;DHT22;7557;51.698;3.942;2023-03-24T05:06:22;10.60;99.90
9223;DHT22;7557;51.698;3.942;2023-03-24T05:08:49;10.60;99.90
9223;DHT22;7557;51.698;3.942;2023-03-24T05:11:19;10.60;99.90
9223;DHT22;7557;51.698;3.942;2023-03-24T05:13:46;10.60;99.90
9223;DHT22;7557;51.698;3.942;2023-03-24T05:16:14;10.60;99.90
9223;DHT22;7557;51.698;3.942;2023-03-24T05:18:43;10.60;99.90
9223;DHT22;7557;51.698;3.942;2023-03-24T05:21:10;10.60;99.90
9223;DHT22;7557;51.698;3.942;2023-03-24T05:23:38;10.70;99.90
9223;DHT22;7557;51.698;3.942;2023-03-24T05:26:06;10.60;99.90
9223;DHT22;7557;51.698;3.942;2023-03-24T05:28:34;10.60;99.90
9223;DHT22;7557;51.698;3.942;2023-03-24T05:31:01;10.60;99.90
9223;DHT22;7557;51.698;3.942;2023-03-24T05:33:29;10.60;99.90
9223;DHT22;7557;51.698;3.942;2023-03-24T05:35:57;10.60;99.90
9223;DHT22;7557;51.698;3.942;2023-03-24T05:38:25;10.60;99.90
9223;DHT22;7557;51.698;3.942;2023-03-24T05:40:55;10.60;99.90
9223;DHT22;7557;51.698;3.942;2023-03-24T05:43:24;10.60;99.90
9223;DHT22;7557;51.698;3.942;2023-03-24T05:45:51;10.60;99.90
9223;DHT22;7557;51.698;3.942;2023-03-24T05:48:21;10.60;99.90
9223;DHT22;7557;51.698;3.942;2023-03-24T05:50:48;10.60;99.90
9223;DHT22;7557;51.698;3.942;2023-03-24T05:53:17;10.60;99.90
9223;DHT22;7557;51.698;3.942;2023-03-24T05:55:45;10.60;99.90
9223;DHT22;7557;51.698;3.942;2023-03-24T05:58:12;10.60;99.90
9223;DHT22;7557;51.698;3.942;2023-03-24T06:00:41;10.60;99.90
9223;DHT22;7557;51.698;3.942;2023-03-24T06:03:09;10.60;99.90
9223;DHT22;7557;51.698;3.942;2023-03-24T06:05:38;10.60;99.90
9223;DHT22;7557;51.698;3.942;2023-03-24T06:08:06;10.60;99.90
9223;DHT22;7557;51.698;3.942;2023-03-24T06:10:36;10.60;99.90
9223;DHT22;7557;51.698;3.942;2023-03-24T06:13:03;10.60;99.90
9223;DHT22;7557;51.698;3.942;2023-03-24T06:15:33;10.70;99.90
9223;DHT22;7557;51.698;3.942;2023-03-24T06:18:00;10.70;99.90
9223;DHT22;7557;51.698;3.942;2023-03-24T06:20:30;10.70;99.90
9223;DHT22;7557;51.698;3.942;2023-03-24T06:22:57;10.70;99.90
9223;DHT22;7557;51.698;3.942;2023-03-24T06:25:25;10.70;99.90
9223;DHT22;7557;51.698;3.942;2023-03-24T06:27:54;10.80;99.90
9223;DHT22;7557;51.698;3.942;2023-03-24T06:30:28;10.80;99.90
9223;DHT22;7557;51.698;3.942;2023-03-24T06:32:56;10.80;99.90
9223;DHT22;7557;51.698;3.942;2023-03-24T06:35:23;10.90;99.90
9223;DHT22;7557;51.698;3.942;2023-03-24T06:37:50;10.90;99.90
9223;DHT22;7557;51.698;3.942;2023-03-24T06:40:18;10.90;99.90
9223;DHT22;7557;51.698;3.942;2023-03-24T06:42:45;11.00;99.90
9223;DHT22;7557;51.698;3.942;2023-03-24T06:45:16;11.00;99.90
9223;DHT22;7557;51.698;3.942;2023-03-24T06:47:44;11.10;99.90
9223;DHT22;7557;51.698;3.942;2023-03-24T06:50:11;11.10;99.90
9223;DHT22;7557;51.698;3.942;2023-03-24T06:52:39;11.10;99.90
9223;DHT22;7557;51.698;3.942;2023-03-24T06:55:07;11.20;99.90
9223;DHT22;7557;51.698;3.942;2023-03-24T06:57:34;11.10;99.90
9223;DHT22;7557;51.698;3.942;2023-03-24T07:00:02;11.10;99.90
9223;DHT22;7557;51.698;3.942;2023-03-24T07:02:32;11.20;99.90
9223;DHT22;7557;51.698;3.942;2023-03-24T07:05:00;11.20;99.90
9223;DHT22;7557;51.698;3.942;2023-03-24T07:07:31;11.30;99.90
9223;DHT22;7557;51.698;3.942;2023-03-24T07:09:58;11.40;99.90
9223;DHT22;7557;51.698;3.942;2023-03-24T07:12:26;11.40;99.90
9223;DHT22;7557;51.698;3.942;2023-03-24T07:14:54;11.50;99.90
9223;DHT22;7557;51.698;3.942;2023-03-24T07:17:21;11.50;99.90
9223;DHT22;7557;51.698;3.942;2023-03-24T07:19:50;11.60;99.90
9223;DHT22;7557;51.698;3.942;2023-03-24T07:22:18;11.60;99.90
9223;DHT22;7557;51.698;3.942;2023-03-24T07:24:45;11.60;99.90
9223;DHT22;7557;51.698;3.942;2023-03-24T07:27:13;11.60;99.90
9223;DHT22;7557;51.698;3.942;2023-03-24T07:29:40;11.60;99.90
9223;DHT22;7557;51.698;3.942;2023-03-24T07:32:08;11.60;99.90
9223;DHT22;7557;51.698;3.942;2023-03-24T07:34:35;11.60;99.90
9223;DHT22;7557;51.698;3.942;2023-03-24T07:37:05;11.60;99.90
9223;DHT22;7557;51.698;3.942;2023-03-24T07:39:33;11.60;99.90
9223;DHT22;7557;51.698;3.942;2023-03-24T07:42:00;11.70;99.90
9223;DHT22;7557;51.698;3.942;2023-03-24T07:44:28;11.70;99.90
9223;DHT22;7557;51.698;3.942;2023-03-24T07:46:55;11.70;99.90
9223;DHT22;7557;51.698;3.942;2023-03-24T07:49:23;11.80;99.90
9223;DHT22;7557;51.698;3.942;2023-03-24T07:51:50;11.80;99.90
9223;DHT22;7557;51.698;3.942;2023-03-24T07:54:19;11.80;99.90
9223;DHT22;7557;51.698;3.942;2023-03-24T07:56:47;11.80;99.90
9223;DHT22;7557;51.698;3.942;2023-03-24T07:59:14;11.90;99.90
9223;DHT22;7557;51.698;3.942;2023-03-24T08:01:42;11.90;99.90
9223;DHT22;7557;51.698;3.942;2023-03-24T08:04:10;12.00;99.90
9223;DHT22;7557;51.698;3.942;2023-03-24T08:06:41;12.00;99.90
9223;DHT22;7557;51.698;3.942;2023-03-24T08:09:09;12.00;99.90
9223;DHT22;7557;51.698;3.942;2023-03-24T08:11:38;12.00;99.90
9223;DHT22;7557;51.698;3.942;2023-03-24T08:14:06;12.00;99.90
9223;DHT22;7557;51.698;3.942;2023-03-24T08:16:33;12.00;99.90
9223;DHT22;7557;51.698;3.942;2023-03-24T08:19:03;12.10;99.90
9223;DHT22;7557;51.698;3.942;2023-03-24T08:21:31;12.10;99.90
9223;DHT22;7557;51.698;3.942;2023-03-24T08:23:58;12.10;99.90
9223;DHT22;7557;51.698;3.942;2023-03-24T08:26:26;12.10;99.90
9223;DHT22;7557;51.698;3.942;2023-03-24T08:29:01;12.20;99.90
9223;DHT22;7557;51.698;3.942;2023-03-24T08:31:31;12.20;99.90
9223;DHT22;7557;51.698;3.942;2023-03-24T08:33:59;12.30;99.90
9223;DHT22;7557;51.698;3.942;2023-03-24T08:36:26;12.40;99.90
9223;DHT22;7557;51.698;3.942;2023-03-24T08:38:54;12.40;99.90
9223;DHT22;7557;51.698;3.942;2023-03-24T08:41:22;12.50;99.90
9223;DHT22;7557;51.698;3.942;2023-03-24T08:43:55;12.60;99.90
9223;DHT22;7557;51.698;3.942;2023-03-24T08:46:24;12.70;99.90
9223;DHT22;7557;51.698;3.942;2023-03-24T08:48:52;12.80;99.90
9223;DHT22;7557;51.698;3.942;2023-03-24T08:51:20;12.90;99.90
9223;DHT22;7557;51.698;3.942;2023-03-24T08:53:47;13.00;99.90
9223;DHT22;7557;51.698;3.942;2023-03-24T08:56:17;13.10;99.90
9223;DHT22;7557;51.698;3.942;2023-03-24T08:58:45;13.20;99.90
9223;DHT22;7557;51.698;3.942;2023-03-24T09:01:13;13.20;99.90
9223;DHT22;7557;51.698;3.942;2023-03-24T09:03:43;13.20;99.90
9223;DHT22;7557;51.698;3.942;2023-03-24T09:06:11;13.30;99.90
9223;DHT22;7557;51.698;3.942;2023-03-24T09:08:39;13.30;99.90
9223;DHT22;7557;51.698;3.942;2023-03-24T09:11:10;13.20;99.90
9223;DHT22;7557;51.698;3.942;2023-03-24T09:13:39;13.20;99.90
9223;DHT22;7557;51.698;3.942;2023-03-24T09:16:07;13.20;99.90
9223;DHT22;7557;51.698;3.942;2023-03-24T09:18:34;13.20;99.90
9223;DHT22;7557;51.698;3.942;2023-03-24T09:21:03;13.20;99.90
9223;DHT22;7557;51.698;3.942;2023-03-24T09:23:31;13.20;99.90
9223;DHT22;7557;51.698;3.942;2023-03-24T09:25:59;13.20;99.90
9223;DHT22;7557;51.698;3.942;2023-03-24T09:28:26;13.20;99.90
9223;DHT22;7557;51.698;3.942;2023-03-24T09:30:56;13.10;99.90
9223;DHT22;7557;51.698;3.942;2023-03-24T09:33:24;13.10;99.90
9223;DHT22;7557;51.698;3.942;2023-03-24T09:35:55;13.10;99.90
9223;DHT22;7557;51.698;3.942;2023-03-24T09:38:28;13.20;99.90
9223;DHT22;7557;51.698;3.942;2023-03-24T09:40:57;13.30;99.90
9223;DHT22;7557;51.698;3.942;2023-03-24T09:43:33;13.50;99.90
9223;DHT22;7557;51.698;3.942;2023-03-24T09:46:08;13.60;99.90
9223;DHT22;7557;51.698;3.942;2023-03-24T09:48:39;13.80;99.90
9223;DHT22;7557;51.698;3.942;2023-03-24T09:51:11;13.80;99.90
9223;DHT22;7557;51.698;3.942;2023-03-24T09:53:44;13.90;99.90
9223;DHT22;7557;51.698;3.942;2023-03-24T09:56:15;14.00;99.90
9223;DHT22;7557;51.698;3.942;2023-03-24T09:58:44;14.00;99.90
9223;DHT22;7557;51.698;3.942;2023-03-24T10:01:15;14.10;99.90
9223;DHT22;7557;51.698;3.942;2023-03-24T10:03:44;14.20;99.90
9223;DHT22;7557;51.698;3.942;2023-03-24T10:06:26;14.30;99.90
9223;DHT22;7557;51.698;3.942;2023-03-24T10:09:07;14.40;99.90
9223;DHT22;7557;51.698;3.942;2023-03-24T10:11:44;14.60;99.90
9223;DHT22;7557;51.698;3.942;2023-03-24T10:14:23;14.70;99.90
9223;DHT22;7557;51.698;3.942;2023-03-24T10:16:56;14.80;99.90
9223;DHT22;7557;51.698;3.942;2023-03-24T10:19:36;14.70;99.90
9223;DHT22;7557;51.698;3.942;2023-03-24T10:22:12;14.70;99.90
9223;DHT22;7557;51.698;3.942;2023-03-24T10:24:46;14.70;99.90
9223;DHT22;7557;51.698;3.942;2023-03-24T10:27:21;14.80;99.90
9223;DHT22;7557;51.698;3.942;2023-03-24T10:29:54;14.60;99.90
9223;DHT22;7557;51.698;3.942;2023-03-24T10:32:29;14.60;99.90
9223;DHT22;7557;51.698;3.942;2023-03-24T10:35:00;14.50;99.90
9223;DHT22;7557;51.698;3.942;2023-03-24T10:37:35;14.40;99.90
9223;DHT22;7557;51.698;3.942;2023-03-24T10:40:13;14.30;99.90
9223;DHT22;7557;51.698;3.942;2023-03-24T10:42:44;14.40;99.90
9223;DHT22;7557;51.698;3.942;2023-03-24T10:45:16;14.50;99.90
9223;DHT22;7557;51.698;3.942;2023-03-24T10:47:46;14.60;99.90
9223;DHT22;7557;51.698;3.942;2023-03-24T10:50:15;14.70;99.90
9223;DHT22;7557;51.698;3.942;2023-03-24T10:52:44;14.80;99.90
9223;DHT22;7557;51.698;3.942;2023-03-24T10:55:17;14.90;99.90
9223;DHT22;7557;51.698;3.942;2023-03-24T10:57:47;15.00;99.90
9223;DHT22;7557;51.698;3.942;2023-03-24T11:00:21;15.00;99.90
9223;DHT22;7557;51.698;3.942;2023-03-24T11:02:56;15.00;99.90
9223;DHT22;7557;51.698;3.942;2023-03-24T11:05:27;14.90;99.90
9223;DHT22;7557;51.698;3.942;2023-03-24T11:08:09;14.80;99.90
9223;DHT22;7557;51.698;3.942;2023-03-24T11:10:39;14.60;99.90
9223;DHT22;7557;51.698;3.942;2023-03-24T11:13:17;14.50;99.90
9223;DHT22;7557;51.698;3.942;2023-03-24T11:15:56;14.50;99.90
9223;DHT22;7557;51.698;3.942;2023-03-24T11:18:30;14.50;99.90
9223;DHT22;7557;51.698;3.942;2023-03-24T11:20:59;14.60;99.90
9223;DHT22;7557;51.698;3.942;2023-03-24T11:23:30;14.70;99.90
9223;DHT22;7557;51.698;3.942;2023-03-24T11:26:07;14.80;99.90
9223;DHT22;7557;51.698;3.942;2023-03-24T11:28:38;15.00;99.90
9223;DHT22;7557;51.698;3.942;2023-03-24T11:31:07;15.10;99.90
9223;DHT22;7557;51.698;3.942;2023-03-24T11:33:43;15.20;99.90
9223;DHT22;7557;51.698;3.942;2023-03-24T11:36:38;15.20;99.90
9223;DHT22;7557;51.698;3.942;2023-03-24T11:39:13;15.10;99.90
9223;DHT22;7557;51.698;3.942;2023-03-24T11:41:51;14.90;99.90
9223;DHT22;7557;51.698;3.942;2023-03-24T11:44:20;14.80;99.90
9223;DHT22;7557;51.698;3.942;2023-03-24T11:46:51;14.80;99.90
9223;DHT22;7557;51.698;3.942;2023-03-24T11:49:22;14.80;99.90
9223;DHT22;7557;51.698;3.942;2023-03-24T11:51:53;14.80;99.90
9223;DHT22;7557;51.698;3.942;2023-03-24T11:54:25;14.80;99.90
9223;DHT22;7557;51.698;3.942;2023-03-24T11:56:56;14.70;99.90
9223;DHT22;7557;51.698;3.942;2023-03-24T11:59:33;14.70;99.90
9223;DHT22;7557;51.698;3.942;2023-03-24T12:02:15;14.90;99.90
9223;DHT22;7557;51.698;3.942;2023-03-24T12:04:58;15.10;99.90
9223;DHT22;7557;51.698;3.942;2023-03-24T12:07:59;15.10;99.90
9223;DHT22;7557;51.698;3.942;2023-03-24T12:10:38;15.20;99.90
9223;DHT22;7557;51.698;3.942;2023-03-24T12:13:11;15.30;99.90
9223;DHT22;7557;51.698;3.942;2023-03-24T12:15:48;15.40;99.90
9223;DHT22;7557;51.698;3.942;2023-03-24T12:18:39;15.40;99.90
9223;DHT22;7557;51.698;3.942;2023-03-24T12:21:21;15.20;99.90
9223;DHT22;7557;51.698;3.942;2023-03-24T12:23:56;15.00;99.90
9223;DHT22;7557;51.698;3.942;2023-03-24T12:26:26;15.00;99.90
9223;DHT22;7557;51.698;3.942;2023-03-24T12:29:18;14.90;99.90
9223;DHT22;7557;51.698;3.942;2023-03-24T12:32:08;14.80;99.90
9223;DHT22;7557;51.698;3.942;2023-03-24T12:35:01;14.50;99.90
9223;DHT22;7557;51.698;3.942;2023-03-24T12:37:36;14.30;99.90
9223;DHT22;7557;51.698;3.942;2023-03-24T12:40:32;14.00;99.90
9223;DHT22;7557;51.698;3.942;2023-03-24T12:43:06;13.80;99.90
9223;DHT22;7557;51.698;3.942;2023-03-24T12:45:41;13.60;99.90
9223;DHT22;7557;51.698;3.942;2023-03-24T12:48:21;13.60;99.90
9223;DHT22;7557;51.698;3.942;2023-03-24T12:51:04;13.60;99.90
9223;DHT22;7557;51.698;3.942;2023-03-24T12:53:50;13.70;99.90
9223;DHT22;7557;51.698;3.942;2023-03-24T12:56:23;13.90;99.90
9223;DHT22;7557;51.698;3.942;2023-03-24T12:58:56;14.00;99.90
9223;DHT22;7557;51.698;3.942;2023-03-24T13:01:29;14.10;99.90
9223;DHT22;7557;51.698;3.942;2023-03-24T13:04:05;14.10;99.90
9223;DHT22;7557;51.698;3.942;2023-03-24T13:06:37;14.10;99.90
9223;DHT22;7557;51.698;3.942;2023-03-24T13:09:16;14.20;99.90
9223;DHT22;7557;51.698;3.942;2023-03-24T13:11:52;14.30;99.90
9223;DHT22;7557;51.698;3.942;2023-03-24T13:14:28;14.40;99.90
9223;DHT22;7557;51.698;3.942;2023-03-24T13:17:04;14.50;99.90
9223;DHT22;7557;51.698;3.942;2023-03-24T13:19:35;14.50;99.90
9223;DHT22;7557;51.698;3.942;2023-03-24T13:22:03;14.60;99.90
9223;DHT22;7557;51.698;3.942;2023-03-24T13:24:33;14.60;99.90
9223;DHT22;7557;51.698;3.942;2023-03-24T13:27:05;14.50;99.90
9223;DHT22;7557;51.698;3.942;2023-03-24T13:32:35;14.70;99.90
9223;DHT22;7557;51.698;3.942;2023-03-24T13:35:13;14.70;99.90
9223;DHT22;7557;51.698;3.942;2023-03-24T13:37:45;14.70;99.90
9223;DHT22;7557;51.698;3.942;2023-03-24T13:40:20;14.70;99.90
9223;DHT22;7557;51.698;3.942;2023-03-24T13:42:52;14.80;99.90
9223;DHT22;7557;51.698;3.942;2023-03-24T13:45:38;14.80;99.90
9223;DHT22;7557;51.698;3.942;2023-03-24T13:48:18;14.80;99.90
9223;DHT22;7557;51.698;3.942;2023-03-24T13:50:54;14.70;99.90
9223;DHT22;7557;51.698;3.942;2023-03-24T13:53:37;14.70;99.90
9223;DHT22;7557;51.698;3.942;2023-03-24T13:56:07;14.70;99.90
9223;DHT22;7557;51.698;3.942;2023-03-24T13:59:08;14.70;99.90
9223;DHT22;7557;51.698;3.942;2023-03-24T14:01:37;14.60;99.90
9223;DHT22;7557;51.698;3.942;2023-03-24T14:04:22;14.60;99.90
9223;DHT22;7557;51.698;3.942;2023-03-24T14:06:52;14.60;99.90
9223;DHT22;7557;51.698;3.942;2023-03-24T14:09:22;14.70;99.90
9223;DHT22;7557;51.698;3.942;2023-03-24T14:12:11;14.70;99.90
9223;DHT22;7557;51.698;3.942;2023-03-24T14:17:46;14.70;99.90
9223;DHT22;7557;51.698;3.942;2023-03-24T14:20:34;14.60;99.90
9223;DHT22;7557;51.698;3.942;2023-03-24T14:23:03;14.60;99.90
9223;DHT22;7557;51.698;3.942;2023-03-24T14:25:31;14.60;99.90
9223;DHT22;7557;51.698;3.942;2023-03-24T14:28:20;14.60;99.90
9223;DHT22;7557;51.698;3.942;2023-03-24T14:31:07;14.60;99.90
9223;DHT22;7557;51.698;3.942;2023-03-24T14:33:38;14.70;99.90
9223;DHT22;7557;51.698;3.942;2023-03-24T14:36:09;14.60;99.90
9223;DHT22;7557;51.698;3.942;2023-03-24T14:38:40;14.70;99.90
9223;DHT22;7557;51.698;3.942;2023-03-24T14:41:14;14.60;99.90
9223;DHT22;7557;51.698;3.942;2023-03-24T14:43:58;14.60;99.90
9223;DHT22;7557;51.698;3.942;2023-03-24T14:46:36;14.60;99.90
9223;DHT22;7557;51.698;3.942;2023-03-24T14:49:08;14.50;99.90
9223;DHT22;7557;51.698;3.942;2023-03-24T14:51:43;14.60;99.90
9223;DHT22;7557;51.698;3.942;2023-03-24T14:54:14;14.60;99.90
9223;DHT22;7557;51.698;3.942;2023-03-24T14:56:44;14.60;99.90
9223;DHT22;7557;51.698;3.942;2023-03-24T14:59:22;14.50;99.90
9223;DHT22;7557;51.698;3.942;2023-03-24T15:01:59;14.60;99.90
9223;DHT22;7557;51.698;3.942;2023-03-24T15:04:27;14.50;99.90
9223;DHT22;7557;51.698;3.942;2023-03-24T15:06:56;14.50;99.90
9223;DHT22;7557;51.698;3.942;2023-03-24T15:09:29;14.50;99.90
9223;DHT22;7557;51.698;3.942;2023-03-24T15:11:58;14.40;99.90
9223;DHT22;7557;51.698;3.942;2023-03-24T15:14:26;14.40;99.90
9223;DHT22;7557;51.698;3.942;2023-03-24T15:16:56;14.30;99.90
9223;DHT22;7557;51.698;3.942;2023-03-24T15:19:28;14.30;99.90
9223;DHT22;7557;51.698;3.942;2023-03-24T15:22:01;14.20;99.90
9223;DHT22;7557;51.698;3.942;2023-03-24T15:24:32;14.20;99.90
9223;DHT22;7557;51.698;3.942;2023-03-24T15:27:22;14.10;99.90
9223;DHT22;7557;51.698;3.942;2023-03-24T15:29:56;14.10;99.90
9223;DHT22;7557;51.698;3.942;2023-03-24T15:32:28;14.00;99.90
9223;DHT22;7557;51.698;3.942;2023-03-24T15:34:59;13.90;99.90
9223;DHT22;7557;51.698;3.942;2023-03-24T15:37:33;13.90;99.90
9223;DHT22;7557;51.698;3.942;2023-03-24T15:40:03;13.80;99.90
9223;DHT22;7557;51.698;3.942;2023-03-24T15:42:32;13.80;99.90
9223;DHT22;7557;51.698;3.942;2023-03-24T15:45:10;13.90;99.90
9223;DHT22;7557;51.698;3.942;2023-03-24T15:47:43;14.00;99.90
9223;DHT22;7557;51.698;3.942;2023-03-24T15:50:29;14.00;99.90
9223;DHT22;7557;51.698;3.942;2023-03-24T15:53:04;14.00;99.90
9223;DHT22;7557;51.698;3.942;2023-03-24T15:55:35;14.10;99.90
9223;DHT22;7557;51.698;3.942;2023-03-24T15:58:20;14.10;99.90
9223;DHT22;7557;51.698;3.942;2023-03-24T16:00:50;14.10;99.90
9223;DHT22;7557;51.698;3.942;2023-03-24T16:03:19;14.10;99.90
9223;DHT22;7557;51.698;3.942;2023-03-24T16:05:53;14.00;99.90
9223;DHT22;7557;51.698;3.942;2023-03-24T16:08:30;14.00;99.90
9223;DHT22;7557;51.698;3.942;2023-03-24T16:11:01;14.00;99.90
9223;DHT22;7557;51.698;3.942;2023-03-24T16:13:30;14.00;99.90
9223;DHT22;7557;51.698;3.942;2023-03-24T16:15:58;13.90;99.90
9223;DHT22;7557;51.698;3.942;2023-03-24T16:18:29;14.00;99.90
9223;DHT22;7557;51.698;3.942;2023-03-24T16:20:58;14.00;99.90
9223;DHT22;7557;51.698;3.942;2023-03-24T16:23:28;14.00;99.90
9223;DHT22;7557;51.698;3.942;2023-03-24T16:25:56;14.00;99.90
9223;DHT22;7557;51.698;3.942;2023-03-24T16:28:23;14.00;99.90
9223;DHT22;7557;51.698;3.942;2023-03-24T16:30:55;14.00;99.90
9223;DHT22;7557;51.698;3.942;2023-03-24T16:33:24;13.90;99.90
9223;DHT22;7557;51.698;3.942;2023-03-24T16:35:52;13.90;99.90
9223;DHT22;7557;51.698;3.942;2023-03-24T16:38:19;13.90;99.90
9223;DHT22;7557;51.698;3.942;2023-03-24T16:40:50;13.90;99.90
9223;DHT22;7557;51.698;3.942;2023-03-24T16:43:18;13.80;99.90
9223;DHT22;7557;51.698;3.942;2023-03-24T16:45:47;13.80;99.90
9223;DHT22;7557;51.698;3.942;2023-03-24T16:48:15;13.70;99.90